Terminal Aerodrome Forecast
Issued by NWS Bismarck, ND

Home | Current Version | Previous Version | Graphics & Text | Print | Product List | Glossary On
Versions: 1 2 3 4 5 6 7 8 9 10 11 12 13
000
FTUS43 KBIS 151128
TAFISN
TAF
KISN 151128Z 1512/1612 34015KT P6SM FEW250
     FM151900 31012KT P6SM FEW250
     FM152100 28008KT P6SM FEW250
     FM152300 24006KT P6SM FEW250
     FM160300 17004KT P6SM FEW250=

USA.gov is the U.S. government's official web portal to all federal, state and local government web resources and services.